Palmeira dos Indios, Brazil
Current Conditions -  °F | °C
As of 9:00 AM on Friday 19 Dec 2014 (Local Time) from SBMO Reporting Station
Scattered Clouds Scattered Clouds  
Wind Chill: 28°   Ceiling: Unl
Heat Index: 30°   Visibility: 6mi
Dew Point: 21°   Wind: 14mph
Humidity: 66%   Direction: 70°ENE
Pressure: 29.91"   Gusts: NA
Location:  9.41°S, 36.63°W
Report Text: SBMO 191200Z 07012KT 9999 SCT020 28/21 Q1013
Loading
Personal Weather Stations






























Interactive Weather Map New forecast layout! Learn more

10-Day Weather Forecast

Advertisements
Track Severe Weather on mobile